Wykagyl, New York
Current Conditions -  °F | °C
As of 5:56 AM on Tuesday 21 Oct 2014 (Local Time) from KHPN Reporting Station
Few Clouds Few Clouds  
Wind Chill: 49°   Ceiling: Unl
Heat Index: 49°   Visibility: 10mi
Dew Point: 45°   Wind: 0mph
Humidity: 86%   Direction: NA
Pressure: 29.89"   Gusts: NA
Location:  40.95°N, 73.79°W
Report Text: KHPN 210956Z 00000KT 10SM FEW110 09/07 A2989 RMK AO2 SLP125 T00940072
Loading
Personal Weather Stations






























Interactive Weather Map New forecast layout! Learn more

10-Day Weather Forecast

Advertisements
Track Severe Weather on mobile